createdAt,value
2019-03-18T00:02:08.860Z,4.05
2019-03-18T00:04:37.069Z,4.92
2019-03-18T00:07:05.293Z,4.05
2019-03-18T00:09:33.516Z,4.15
2019-03-18T00:12:01.771Z,3.80
2019-03-18T00:14:29.985Z,4.03
2019-03-18T00:16:58.228Z,4.20
2019-03-18T00:19:26.425Z,4.10
2019-03-18T00:21:54.633Z,4.33
2019-03-18T00:24:22.865Z,4.10
2019-03-18T00:26:51.146Z,4.25
2019-03-18T00:29:20.309Z,4.78
2019-03-18T00:31:48.523Z,4.10
2019-03-18T00:34:16.732Z,3.98
2019-03-18T00:36:44.969Z,4.47
2019-03-18T00:39:13.183Z,4.20
2019-03-18T00:41:41.388Z,4.03
2019-03-18T00:44:09.597Z,3.95
2019-03-18T00:46:37.809Z,4.00
2019-03-18T00:49:06.016Z,3.90
2019-03-18T00:51:34.265Z,3.95
2019-03-18T00:54:02.570Z,4.12
2019-03-18T00:56:30.783Z,4.17
2019-03-18T00:58:58.992Z,4.08
2019-03-18T01:01:27.237Z,4.33
2019-03-18T01:03:55.445Z,4.37
2019-03-18T01:06:23.666Z,3.85
2019-03-18T01:08:51.882Z,4.53
2019-03-18T01:11:20.083Z,3.98
2019-03-18T01:13:48.299Z,4.45
2019-03-18T01:16:16.502Z,4.75
2019-03-18T01:18:44.721Z,3.85
2019-03-18T01:21:12.933Z,4.00
2019-03-18T01:23:41.144Z,3.90
2019-03-18T01:26:09.386Z,3.70
2019-03-18T01:28:37.840Z,4.00
2019-03-18T01:31:06.057Z,4.00
2019-03-18T01:33:34.271Z,4.00
2019-03-18T01:36:02.502Z,4.20
2019-03-18T01:38:30.800Z,4.17
2019-03-18T01:40:59.010Z,4.22
2019-03-18T01:43:27.216Z,3.90
2019-03-18T01:45:55.420Z,4.00
2019-03-18T01:48:23.627Z,3.90
2019-03-18T01:50:51.834Z,4.25
2019-03-18T01:53:20.115Z,4.10
2019-03-18T01:55:48.326Z,4.40
2019-03-18T01:58:17.423Z,4.70
2019-03-18T02:00:45.627Z,4.30
2019-03-18T02:03:13.856Z,4.25
2019-03-18T02:05:42.061Z,4.05
2019-03-18T02:08:10.310Z,4.60
2019-03-18T02:10:38.524Z,5.33
2019-03-18T02:13:06.731Z,5.75
2019-03-18T02:15:34.935Z,5.40
2019-03-18T02:18:03.142Z,5.43
2019-03-18T02:20:31.365Z,5.28
2019-03-18T02:22:59.569Z,5.40
2019-03-18T02:25:27.778Z,6.03
2019-03-18T02:27:55.989Z,5.47
2019-03-18T02:30:24.198Z,5.83
2019-03-18T02:32:52.417Z,6.10
2019-03-18T02:35:20.619Z,5.95
2019-03-18T02:37:48.833Z,5.62
2019-03-18T02:40:17.053Z,6.17
2019-03-18T02:42:45.266Z,6.00
2019-03-18T02:45:13.566Z,5.47
2019-03-18T02:47:41.787Z,6.10
2019-03-18T02:50:10.237Z,5.30
2019-03-18T02:52:38.453Z,6.17
2019-03-18T02:55:07.809Z,5.72
2019-03-18T02:57:36.050Z,5.55
2019-03-18T03:00:32.069Z,5.00
2019-03-18T03:03:00.303Z,5.45
2019-03-18T03:05:28.501Z,5.13
2019-03-18T03:07:56.711Z,4.55
2019-03-18T03:10:24.925Z,4.53
2019-03-18T03:12:53.131Z,5.12
2019-03-18T03:15:21.350Z,4.53
2019-03-18T03:17:50.617Z,5.12
2019-03-18T03:20:18.824Z,4.65
2019-03-18T03:22:47.094Z,4.37
2019-03-18T03:25:15.273Z,4.50
2019-03-18T03:27:43.487Z,4.30
2019-03-18T03:30:14.427Z,5.20
2019-03-18T03:32:42.752Z,4.70
2019-03-18T03:35:10.975Z,3.95
2019-03-18T03:37:39.164Z,3.90
2019-03-18T03:40:09.664Z,3.87
2019-03-18T03:42:37.944Z,4.55
2019-03-18T03:45:07.837Z,4.55
2019-03-18T03:47:36.059Z,4.70
2019-03-18T03:50:04.931Z,4.53
2019-03-18T03:52:33.145Z,4.95
2019-03-18T03:55:01.375Z,4.83
2019-03-18T03:57:29.593Z,4.90
2019-03-18T03:59:57.798Z,4.80
2019-03-18T04:02:26.015Z,4.72
2019-03-18T04:04:54.220Z,5.08
2019-03-18T04:07:22.441Z,4.67
2019-03-18T04:09:50.913Z,4.35
2019-03-18T04:12:19.124Z,4.78
2019-03-18T04:14:47.372Z,5.10
2019-03-18T04:17:15.586Z,4.95
2019-03-18T04:19:43.820Z,4.97
2019-03-18T04:22:12.051Z,4.90
2019-03-18T04:24:40.256Z,5.72
2019-03-18T04:27:08.482Z,4.70
2019-03-18T04:29:36.693Z,4.92
2019-03-18T04:32:04.922Z,4.47
2019-03-18T04:34:33.136Z,5.07
2019-03-18T04:37:01.381Z,5.22
2019-03-18T04:39:29.602Z,4.65
2019-03-18T04:41:57.821Z,5.28
2019-03-18T04:44:26.044Z,5.06
2019-03-18T04:46:54.277Z,4.95
2019-03-18T04:49:22.492Z,4.87
2019-03-18T04:51:51.246Z,5.37
2019-03-18T04:54:19.457Z,5.92
2019-03-18T04:56:47.692Z,5.35
2019-03-18T04:59:15.904Z,5.37
2019-03-18T05:01:44.116Z,5.67
2019-03-18T05:04:12.364Z,6.03
2019-03-18T05:06:40.579Z,5.55
2019-03-18T05:09:08.847Z,4.70
2019-03-18T05:11:37.094Z,4.95
2019-03-18T05:14:05.305Z,5.20
2019-03-18T05:16:33.521Z,5.08
2019-03-18T05:19:01.736Z,4.97
2019-03-18T05:21:29.957Z,4.90
2019-03-18T05:23:58.180Z,4.55
2019-03-18T05:26:26.399Z,5.47
2019-03-18T05:28:54.630Z,5.30
2019-03-18T05:31:22.836Z,5.40
2019-03-18T05:33:51.489Z,6.35
2019-03-18T05:36:19.769Z,5.65
2019-03-18T05:38:47.985Z,5.60
2019-03-18T05:41:16.248Z,6.67
2019-03-18T05:43:44.437Z,5.97
2019-03-18T05:46:12.690Z,6.47
2019-03-18T05:48:40.934Z,6.75
2019-03-18T05:51:09.156Z,6.85
2019-03-18T05:53:37.364Z,6.80
2019-03-18T05:56:05.577Z,6.90
2019-03-18T05:58:33.815Z,6.90
2019-03-18T06:01:02.058Z,6.60
2019-03-18T06:03:30.287Z,6.42
2019-03-18T06:05:58.503Z,6.65
2019-03-18T06:08:26.748Z,7.47
2019-03-18T06:10:54.978Z,6.67
2019-03-18T06:13:23.389Z,7.55
2019-03-18T06:15:51.737Z,6.70
2019-03-18T06:18:19.966Z,6.37
2019-03-18T06:20:48.176Z,7.45
2019-03-18T06:23:16.395Z,6.70
2019-03-18T06:25:44.631Z,7.00
2019-03-18T06:28:12.852Z,7.10
2019-03-18T06:30:41.078Z,7.12
2019-03-18T06:33:09.295Z,6.53
2019-03-18T06:35:37.515Z,6.72
2019-03-18T06:38:05.725Z,5.67
2019-03-18T06:40:33.949Z,7.10
2019-03-18T06:43:02.166Z,6.65
2019-03-18T06:45:30.383Z,6.95
2019-03-18T06:48:04.827Z,6.93
2019-03-18T06:50:28.571Z,7.75
2019-03-18T06:52:56.796Z,7.22
2019-03-18T06:55:25.008Z,6.72
2019-03-18T06:57:53.227Z,7.87
2019-03-18T07:00:22.084Z,6.67
2019-03-18T07:02:50.312Z,6.55
2019-03-18T07:05:18.515Z,7.45
2019-03-18T07:07:46.732Z,7.15
2019-03-18T07:10:14.953Z,7.33
2019-03-18T07:12:43.171Z,7.10
2019-03-18T07:15:11.479Z,6.90
2019-03-18T07:17:39.686Z,6.42
2019-03-18T07:20:13.767Z,6.85
2019-03-18T07:22:42.085Z,6.58
2019-03-18T07:25:10.320Z,7.15
2019-03-18T07:27:38.552Z,6.92
2019-03-18T07:30:12.193Z,8.23
2019-03-18T07:32:40.417Z,7.20
2019-03-18T07:35:08.624Z,6.35
2019-03-18T07:37:36.960Z,7.50
2019-03-18T07:40:16.195Z,8.38
2019-03-18T07:42:44.403Z,7.42
2019-03-18T07:45:15.890Z,6.20
2019-03-18T07:47:44.124Z,8.13
2019-03-18T07:50:15.599Z,7.28
2019-03-18T07:52:43.808Z,6.95
2019-03-18T07:55:12.030Z,7.85
2019-03-18T07:57:40.302Z,7.17
2019-03-18T08:00:15.503Z,7.23
2019-03-18T08:02:43.707Z,7.65
2019-03-18T08:05:11.924Z,7.72
2019-03-18T08:07:40.135Z,6.97
2019-03-18T08:10:10.381Z,7.03
2019-03-18T08:12:38.957Z,6.50
2019-03-18T08:15:09.290Z,7.10
2019-03-18T08:17:37.499Z,7.40
2019-03-18T08:20:10.476Z,6.28
2019-03-18T08:22:38.733Z,7.33
2019-03-18T08:25:08.507Z,7.33
2019-03-18T08:27:36.719Z,7.40
2019-03-18T08:30:13.265Z,6.78
2019-03-18T08:32:41.523Z,7.42
2019-03-18T08:35:09.736Z,6.57
2019-03-18T08:37:37.977Z,7.47
2019-03-18T08:40:10.676Z,7.03
2019-03-18T08:42:38.889Z,6.67
2019-03-18T08:45:09.911Z,7.00
2019-03-18T08:47:38.126Z,6.60
2019-03-18T08:50:11.911Z,6.28
2019-03-18T08:52:38.858Z,5.73
2019-03-18T08:55:08.917Z,6.97
2019-03-18T08:57:37.130Z,6.13
2019-03-18T09:00:08.637Z,7.20
2019-03-18T09:02:36.867Z,6.05
2019-03-18T09:05:06.295Z,6.70
2019-03-18T09:07:34.547Z,6.15
2019-03-18T09:10:02.828Z,5.30
2019-03-18T09:12:31.041Z,6.15
2019-03-18T09:14:59.291Z,6.08
2019-03-18T09:17:27.509Z,6.40
2019-03-18T09:19:55.729Z,6.03
2019-03-18T09:22:24.068Z,6.05
2019-03-18T09:24:53.208Z,5.80
2019-03-18T09:27:21.427Z,5.75
2019-03-18T09:29:49.652Z,5.65
2019-03-18T09:32:17.899Z,5.37
2019-03-18T09:34:46.105Z,5.05
2019-03-18T09:37:14.335Z,5.25
2019-03-18T09:39:42.548Z,4.97
2019-03-18T09:42:10.778Z,4.90
2019-03-18T09:44:38.994Z,4.75
2019-03-18T09:47:07.203Z,5.07
2019-03-18T09:49:35.441Z,5.08
2019-03-18T09:52:03.659Z,5.55
2019-03-18T09:54:31.875Z,6.12
2019-03-18T09:57:00.097Z,6.40
2019-03-18T09:59:28.335Z,7.20
2019-03-18T10:01:56.550Z,7.60
2019-03-18T10:04:24.789Z,7.35
2019-03-18T10:06:53.958Z,8.03
2019-03-18T10:09:22.189Z,7.00
2019-03-18T10:11:50.405Z,7.80
2019-03-18T10:14:19.827Z,8.73
2019-03-18T10:16:48.130Z,8.20
2019-03-18T10:19:16.369Z,7.78
2019-03-18T10:21:44.570Z,7.57
2019-03-18T10:24:12.786Z,7.17
2019-03-18T10:26:41.052Z,7.47
2019-03-18T10:29:09.277Z,7.05
2019-03-18T10:31:37.478Z,7.30
2019-03-18T10:34:05.693Z,7.57
2019-03-18T10:36:33.913Z,7.37
2019-03-18T10:39:02.155Z,7.45
2019-03-18T10:41:30.371Z,7.62
2019-03-18T10:43:58.600Z,7.50
2019-03-18T10:46:26.820Z,7.58
2019-03-18T10:48:55.029Z,5.65
2019-03-18T10:51:23.916Z,4.80
2019-03-18T10:53:52.123Z,4.72
2019-03-18T10:56:20.378Z,6.33
2019-03-18T10:58:48.624Z,6.35
2019-03-18T11:01:16.877Z,6.13
2019-03-18T11:03:45.088Z,6.30
2019-03-18T11:06:13.303Z,6.33
2019-03-18T11:08:41.517Z,6.85
2019-03-18T11:11:09.740Z,6.62
2019-03-18T11:13:37.960Z,7.83
2019-03-18T11:16:06.192Z,7.25
2019-03-18T11:18:34.416Z,7.85
2019-03-18T11:21:02.634Z,7.22
2019-03-18T11:23:30.854Z,7.97
2019-03-18T11:25:59.064Z,6.67
2019-03-18T11:28:27.293Z,4.47
2019-03-18T11:30:55.509Z,4.05
2019-03-18T11:33:24.079Z,4.00
2019-03-18T11:35:52.286Z,4.17
2019-03-18T11:38:20.499Z,4.90
2019-03-18T11:40:48.718Z,5.00
2019-03-18T11:43:16.943Z,4.83
2019-03-18T11:45:45.154Z,4.53
2019-03-18T11:48:13.360Z,4.53
2019-03-18T11:50:41.657Z,4.90
2019-03-18T11:53:14.487Z,4.67
2019-03-18T11:55:39.806Z,4.17
2019-03-18T11:58:08.038Z,5.17
2019-03-18T12:00:36.244Z,4.85
2019-03-18T12:03:04.466Z,5.55
2019-03-18T12:05:32.673Z,6.03
2019-03-18T12:08:00.891Z,7.28
2019-03-18T12:10:29.096Z,7.12
2019-03-18T12:12:57.309Z,7.37
2019-03-18T12:15:26.491Z,7.80
2019-03-18T12:17:54.749Z,7.25
2019-03-18T12:20:25.509Z,6.60
2019-03-18T12:22:52.853Z,7.72
2019-03-18T12:25:21.066Z,6.90
2019-03-18T12:27:50.441Z,6.60
2019-03-18T12:30:21.057Z,7.55
2019-03-18T12:32:49.266Z,7.37
2019-03-18T12:35:17.497Z,7.47
2019-03-18T12:37:45.739Z,7.28
2019-03-18T12:40:17.600Z,6.58
2019-03-18T12:42:45.889Z,7.10
2019-03-18T12:45:16.218Z,7.12
2019-03-18T12:47:44.431Z,7.70
2019-03-18T12:50:38.724Z,7.40
2019-03-18T12:52:50.978Z,7.00
2019-03-18T12:55:19.204Z,6.87
2019-03-18T12:57:47.430Z,6.92
2019-03-18T13:00:24.064Z,7.12
2019-03-18T13:02:52.300Z,7.67
2019-03-18T13:05:20.536Z,7.30
2019-03-18T13:07:48.755Z,6.77
2019-03-18T13:10:21.405Z,7.00
2019-03-18T13:12:49.028Z,8.30
2019-03-18T13:15:19.149Z,8.00
2019-03-18T13:17:47.394Z,7.20
2019-03-18T13:20:17.063Z,6.83
2019-03-18T13:22:45.298Z,7.50
2019-03-18T13:25:13.863Z,6.80
2019-03-18T13:27:42.079Z,6.97
2019-03-18T13:30:18.233Z,7.20
2019-03-18T13:32:46.454Z,7.87
2019-03-18T13:35:14.666Z,7.87
2019-03-18T13:37:42.900Z,7.58
2019-03-18T13:40:17.967Z,6.60
2019-03-18T13:42:46.207Z,7.17
2019-03-18T13:45:19.988Z,6.78
2019-03-18T13:47:48.220Z,7.25
2019-03-18T13:50:17.467Z,7.15
2019-03-18T13:52:45.683Z,6.42
2019-03-18T13:55:13.910Z,7.50
2019-03-18T13:57:42.170Z,7.60
2019-03-18T14:00:15.868Z,7.08
2019-03-18T14:02:44.077Z,7.53
2019-03-18T14:05:12.346Z,7.23
2019-03-18T14:07:40.546Z,7.42
2019-03-18T14:10:17.902Z,6.33
2019-03-18T14:12:46.119Z,6.60
2019-03-18T14:15:19.641Z,4.97
2019-03-18T14:17:47.858Z,5.17
2019-03-18T14:20:18.532Z,5.30
2019-03-18T14:22:46.765Z,5.65
2019-03-18T14:25:15.002Z,5.30
2019-03-18T14:27:43.238Z,6.00
2019-03-18T14:30:19.792Z,6.00
2019-03-18T14:32:47.997Z,6.03
2019-03-18T14:35:16.208Z,6.67
2019-03-18T14:37:44.432Z,6.08
2019-03-18T14:40:17.857Z,6.67
2019-03-18T14:42:46.077Z,6.70
2019-03-18T14:45:16.349Z,6.70
2019-03-18T14:47:44.584Z,8.00
2019-03-18T14:50:14.071Z,8.40
2019-03-18T14:52:42.333Z,7.62
2019-03-18T14:55:13.858Z,7.65
2019-03-18T14:57:42.061Z,7.22
2019-03-18T15:00:14.744Z,6.60
2019-03-18T15:02:43.290Z,6.12
2019-03-18T15:05:13.470Z,7.40
2019-03-18T15:07:41.687Z,8.58
2019-03-18T15:10:13.159Z,8.40
2019-03-18T15:12:41.435Z,8.80
2019-03-18T15:15:12.491Z,9.15
2019-03-18T15:17:40.827Z,6.60
2019-03-18T15:20:12.359Z,4.92
2019-03-18T15:22:40.767Z,6.12
2019-03-18T15:25:12.085Z,6.33
2019-03-18T15:27:40.328Z,6.50
2019-03-18T15:30:14.398Z,6.28
2019-03-18T15:32:42.606Z,7.10
2019-03-18T15:35:11.799Z,7.62
2019-03-18T15:37:40.017Z,8.20
2019-03-18T15:40:11.419Z,7.45
2019-03-18T15:42:39.658Z,7.62
2019-03-18T15:45:10.987Z,8.13
2019-03-18T15:47:39.209Z,7.80
2019-03-18T15:50:12.789Z,7.85
2019-03-18T15:52:40.340Z,7.22
2019-03-18T15:55:08.938Z,7.65
2019-03-18T15:57:37.162Z,7.50
2019-03-18T16:00:08.873Z,7.92
2019-03-18T16:02:37.097Z,8.60
2019-03-18T16:05:06.441Z,8.43
2019-03-18T16:07:34.792Z,7.72
2019-03-18T16:10:03.292Z,8.53
2019-03-18T16:12:31.528Z,7.78
2019-03-18T16:14:59.737Z,8.43
2019-03-18T16:17:27.958Z,8.43
2019-03-18T16:19:56.434Z,8.42
2019-03-18T16:22:24.643Z,7.25
2019-03-18T16:24:52.884Z,8.30
2019-03-18T16:27:21.101Z,9.18
2019-03-18T16:29:49.308Z,8.60
2019-03-18T16:32:17.544Z,8.63
2019-03-18T16:34:45.751Z,8.53
2019-03-18T16:37:14.008Z,8.60
2019-03-18T16:39:42.340Z,8.28
2019-03-18T16:42:10.804Z,8.73
2019-03-18T16:44:39.028Z,8.95
2019-03-18T16:47:07.252Z,10.33
2019-03-18T16:49:35.475Z,9.08
2019-03-18T16:52:03.683Z,8.50
2019-03-18T16:54:31.909Z,7.47
2019-03-18T16:57:00.133Z,8.00
2019-03-18T16:59:28.350Z,7.30
2019-03-18T17:01:56.676Z,7.27
2019-03-18T17:04:25.376Z,7.67
2019-03-18T17:06:53.595Z,7.25
2019-03-18T17:09:21.808Z,6.97
2019-03-18T17:11:50.022Z,6.83
2019-03-18T17:14:18.248Z,7.40
2019-03-18T17:16:46.484Z,7.33
2019-03-18T17:19:14.696Z,7.57
2019-03-18T17:21:42.915Z,7.70
2019-03-18T17:24:11.127Z,6.72
2019-03-18T17:26:39.381Z,7.08
2019-03-18T17:29:07.588Z,8.70
2019-03-18T17:31:35.801Z,6.90
2019-03-18T17:34:04.023Z,7.30
2019-03-18T17:36:32.248Z,7.28
2019-03-18T17:39:00.605Z,7.40
2019-03-18T17:41:28.828Z,7.13
2019-03-18T17:43:57.064Z,6.95
2019-03-18T17:46:25.437Z,6.80
2019-03-18T17:48:53.803Z,7.78
2019-03-18T17:51:22.189Z,8.20
2019-03-18T17:53:50.385Z,7.37
2019-03-18T17:56:29.727Z,6.95
2019-03-18T17:58:48.563Z,7.10
2019-03-18T18:01:17.614Z,6.90
2019-03-18T18:03:45.839Z,7.87
2019-03-18T18:06:14.095Z,6.60
2019-03-18T18:08:42.314Z,7.65
2019-03-18T18:11:10.523Z,7.03
2019-03-18T18:13:38.737Z,6.83
2019-03-18T18:16:06.955Z,6.62
2019-03-18T18:18:35.194Z,6.10
2019-03-18T18:21:03.402Z,7.25
2019-03-18T18:23:31.618Z,7.22
2019-03-18T18:25:59.847Z,7.22
2019-03-18T18:28:28.614Z,6.92
2019-03-18T18:30:57.321Z,7.12
2019-03-18T18:33:25.541Z,7.60
2019-03-18T18:35:53.798Z,7.17
2019-03-18T18:38:22.003Z,5.58
2019-03-18T18:40:50.221Z,5.75
2019-03-18T18:43:18.446Z,5.55
2019-03-18T18:45:46.659Z,5.20
2019-03-18T18:48:14.896Z,5.83
2019-03-18T18:50:43.103Z,5.72
2019-03-18T18:53:11.433Z,5.10
2019-03-18T18:55:39.823Z,5.28
2019-03-18T18:58:08.032Z,5.67
2019-03-18T19:00:36.263Z,5.45
2019-03-18T19:03:04.470Z,5.33
2019-03-18T19:05:32.686Z,5.58
2019-03-18T19:08:00.892Z,5.75
2019-03-18T19:10:29.104Z,5.47
2019-03-18T19:12:57.641Z,5.60
2019-03-18T19:15:28.454Z,5.42
2019-03-18T19:17:57.676Z,5.53
2019-03-18T19:20:25.920Z,5.50
2019-03-18T19:22:54.145Z,6.05
2019-03-18T19:25:22.358Z,6.60
2019-03-18T19:27:50.590Z,6.40
2019-03-18T19:30:23.492Z,6.08
2019-03-18T19:32:51.714Z,5.85
2019-03-18T19:35:19.946Z,6.12
2019-03-18T19:37:48.147Z,6.03
2019-03-18T19:40:19.651Z,6.10
2019-03-18T19:42:47.865Z,5.97
2019-03-18T19:45:16.080Z,6.03
2019-03-18T19:47:44.451Z,5.97
2019-03-18T19:50:29.849Z,6.58
2019-03-18T19:52:58.068Z,6.67
2019-03-18T19:55:26.282Z,6.22
2019-03-18T19:57:54.562Z,6.30
2019-03-18T20:00:23.612Z,6.20
2019-03-18T20:02:51.896Z,6.33
2019-03-18T20:05:20.116Z,6.42
2019-03-18T20:07:48.327Z,5.47
2019-03-18T20:10:17.889Z,5.85
2019-03-18T20:12:46.079Z,6.73
2019-03-18T20:15:15.451Z,5.53
2019-03-18T20:17:43.660Z,6.17
2019-03-18T20:20:20.048Z,6.90
2019-03-18T20:22:48.284Z,6.85
2019-03-18T20:25:16.502Z,6.10
2019-03-18T20:27:44.953Z,7.00
2019-03-18T20:30:21.181Z,6.37
2019-03-18T20:32:49.403Z,6.45
2019-03-18T20:35:21.252Z,5.95
2019-03-18T20:37:51.866Z,6.17
2019-03-18T20:40:19.414Z,6.23
2019-03-18T20:42:47.660Z,6.20
2019-03-18T20:45:17.755Z,6.80
2019-03-18T20:47:45.972Z,6.90
2019-03-18T20:50:21.796Z,6.70
2019-03-18T20:52:50.009Z,5.40
2019-03-18T20:55:18.228Z,6.60
2019-03-18T20:57:46.439Z,5.72
2019-03-18T21:00:19.418Z,6.20
2019-03-18T21:02:47.639Z,5.78
2019-03-18T21:05:15.871Z,5.92
2019-03-18T21:07:44.089Z,6.00
2019-03-18T21:10:21.592Z,5.75
2019-03-18T21:12:49.801Z,5.70
2019-03-18T21:15:18.608Z,6.10
2019-03-18T21:17:46.837Z,6.50
2019-03-18T21:20:26.355Z,5.65
2019-03-18T21:22:54.724Z,6.20
2019-03-18T21:25:22.943Z,6.70
2019-03-18T21:27:51.155Z,6.20
2019-03-18T21:30:20.318Z,6.45
2019-03-18T21:32:48.591Z,5.30
2019-03-18T21:35:16.822Z,5.83
2019-03-18T21:37:45.039Z,6.62
2019-03-18T21:40:17.716Z,6.90
2019-03-18T21:42:45.929Z,6.20
2019-03-18T21:45:17.180Z,6.87
2019-03-18T21:47:45.425Z,6.00
2019-03-18T21:50:15.490Z,6.30
2019-03-18T21:52:43.721Z,6.73
2019-03-18T21:55:12.086Z,5.72
2019-03-18T21:57:40.306Z,5.83
2019-03-18T22:00:24.105Z,6.08
2019-03-18T22:02:52.323Z,5.87
2019-03-18T22:05:20.543Z,6.37
2019-03-18T22:07:48.768Z,6.22
2019-03-18T22:10:18.111Z,6.65
2019-03-18T22:12:46.901Z,5.62
2019-03-18T22:15:15.878Z,6.95
2019-03-18T22:17:44.095Z,5.58
2019-03-18T22:20:14.141Z,5.87
2019-03-18T22:22:42.352Z,6.17
2019-03-18T22:25:12.123Z,6.00
2019-03-18T22:27:40.339Z,5.80
2019-03-18T22:30:11.348Z,5.17
2019-03-18T22:32:39.680Z,6.22
2019-03-18T22:35:08.629Z,5.70
2019-03-18T22:37:36.835Z,6.00
2019-03-18T22:40:12.781Z,6.22
2019-03-18T22:42:41.001Z,6.47
2019-03-18T22:45:17.266Z,5.72
2019-03-18T22:47:45.559Z,6.37
2019-03-18T22:50:14.623Z,6.25
2019-03-18T22:52:42.832Z,6.00
2019-03-18T22:55:12.020Z,6.33
2019-03-18T22:57:40.231Z,5.67
2019-03-18T23:00:28.747Z,6.37
2019-03-18T23:02:56.960Z,5.22
2019-03-18T23:05:25.184Z,6.33
2019-03-18T23:07:53.398Z,5.80
2019-03-18T23:10:21.611Z,6.15
2019-03-18T23:12:49.831Z,6.90
2019-03-18T23:15:18.041Z,6.08
2019-03-18T23:17:46.258Z,6.22
2019-03-18T23:20:14.471Z,6.27
2019-03-18T23:22:42.684Z,6.22
2019-03-18T23:25:10.917Z,6.25
2019-03-18T23:27:39.126Z,6.00
2019-03-18T23:30:13.758Z,5.87
2019-03-18T23:32:41.981Z,5.83
2019-03-18T23:35:10.246Z,6.30
2019-03-18T23:37:38.412Z,5.53
2019-03-18T23:40:12.285Z,4.97
2019-03-18T23:42:40.496Z,5.97
2019-03-18T23:45:09.570Z,6.00
2019-03-18T23:47:37.779Z,6.03
2019-03-18T23:50:11.834Z,6.30
2019-03-18T23:52:40.066Z,5.42
2019-03-18T23:55:18.274Z,5.95
